Terminal Aerodrome Forecast
Issued by NWS

Home | Current Version | Previous Version | Text Only | Print | Product List | Glossary On
Versions: 1 2 3 4 5 6 7 8 9 10 11 12 13 14 15 16 17
000
FTPQ31 PGUM 270538
TAFGUM
TAF

TAF
PGRO 270538Z 2706/2806 01010KT P6SM VCSH FEW011 SCT050 SCT120
      TEMPO 2706/2708 5SM SHRA SCT011 BKN025
     FM271300 01011KT P6SM VCSH SCT011 SCT040 BKN110=

USA.gov is the U.S. government's official web portal to all federal, state and local government web resources and services.